Meteo Giornale » Osservazioni meteo Italia » Pescara

ore: 16:50 - Osservazioni Meteo Pescara
Lat. 42° 26' N Lon. 14° 12' E Alt. 10 metri s.l.m.

sereno Europe/Rome

8 °C

Sereno

Temp. 24 Ore

-2 °C

12 °C

Nord

1.8 Km/h

Dew point -1 °C

Umidità 52 %

Visibilità  10 Km

Il sole sorge alle ore 07:21

Il sole tramonta alle ore 16:32

Data e Ora Cielo e Fenomeni T °C DP °C Um. % Pres. hPa Vis. km Vento km/h
Oggi h: 16:50 sereno Sereno 8 -1 52 1019 10 N 1.8
Oggi h: 15:50 sereno Sereno 10 -1 46 1019 10 NE 11.1
Oggi h: 14:50 sereno Sereno 11 -3 37 1019 10 N/NE 13
Oggi h: 13:50 sereno Sereno 12 -3 34 1019 10 NE 7.4
Oggi h: 12:50 sereno Sereno 11 -1 43 1019 10 N 3.7
Oggi h: 11:50 sereno Sereno 10 1 53 1020 10 SO 11.1
Oggi h: 10:50 sereno Sereno 8 1 61 1021 10 SO 9.3
Oggi h: 09:50 sereno Sereno 5 0 70 1021 10 SO 13
Oggi h: 08:50 sereno Sereno 1 -0 93 1021 10 S/SO 7.4
Oggi h: 07:50 sereno Sereno -2 -3 92 1020 10 SO 9.3
Oggi h: 06:50 sereno Sereno 0 -1 92 1020 10 O/SO 11.1
Oggi h: 05:50 sereno Sereno -1 -3 86 1020 10 N 5.5
Oggi h: 04:50 sereno Sereno -0 -1 92 1020 10 S/SO 11.1
Oggi h: 03:50 sereno Sereno -1 -2 92 1020 10 S/SO 13
Oggi h: 02:50 sereno Sereno -1 -1 100 1020 10 SO 7.4
Oggi h: 01:50 sereno Sereno 0 -0 100 1020 10 S 7.4
Oggi h: 00:50 sereno Sereno 0 -1 92 1020 10 S/SO 11.1
Ieri h: 23:50 sereno Sereno -0 -1 92 1020 10 N 5.5
Ieri h: 22:50 sereno Sereno 1 1 100 1020 10 SO 9.3
Ieri h: 21:50 sereno Sereno 2 2 100 1020 10 SO 11.1
Ieri h: 20:50 sereno Sereno 3 2 93 1020 10 SO 11.1
Ieri h: 19:50 sereno Sereno 4 3 93 1020 10 SO 9.3
Ieri h: 18:50 sereno Sereno 3 2 93 1019 10 S/SO 11.1
Ieri h: 17:50 sereno Sereno 5 3 86 1019 10 S/SO 9.3